KQA255 FMCZ-HKJK
Flight info
| Callsign | KQA255 |
|---|---|
| Flight time | N/A |
| Altitude | 36000 |
| Route | HAI UB790 KINAN UT913 DUNDO/N0400F200 UT913 GABSO GABSO4C |
| Aircraft | E190/M-SDE3GILORVW/S |
Departure
| Time | 2026-05-04 14:06 |
|---|---|
| Airport | Dzaoudzi Pamandzi International Airport (FMCZ) |
Arrival
| Time | N/A |
|---|---|
| Airport | Jomo Kenyatta International Airport (HKJK) |
| Time | Latitude | Longitude | Altitude | Speed | Heading |
|---|---|---|---|---|---|
| 2026-05-04 13:58 | -12.80401 | 45.28239 | 46 ft | 0 kts | 60° |
| 2026-05-04 14:02 | -12.80391 | 45.28245 | 46 ft | 1 kts | 26° |
| 2026-05-04 14:02 | -12.80389 | 45.28244 | 46 ft | 0 kts | 3° |
| 2026-05-04 14:02 | -12.80386 | 45.28240 | 46 ft | 2 kts | 323° |
| 2026-05-04 14:03 | -12.80394 | 45.28209 | 46 ft | 10 kts | 257° |
| 2026-05-04 14:03 | -12.80378 | 45.28138 | 46 ft | 11 kts | 291° |
| 2026-05-04 14:03 | -12.80399 | 45.28067 | 44 ft | 11 kts | 240° |
| 2026-05-04 14:03 | -12.80441 | 45.27991 | 42 ft | 13 kts | 249° |
| 2026-05-04 14:04 | -12.80326 | 45.27856 | 41 ft | 16 kts | 329° |
| 2026-05-04 14:04 | -12.80232 | 45.27792 | 43 ft | 17 kts | 313° |
| 2026-05-04 14:04 | -12.80189 | 45.27762 | 43 ft | 4 kts | 59° |
| 2026-05-04 14:05 | -12.80343 | 45.27866 | 43 ft | 47 kts | 150° |
| 2026-05-04 14:05 | -12.80822 | 45.28149 | 47 ft | 110 kts | 149° |
| 2026-05-04 14:05 | -12.81639 | 45.28630 | 69 ft | 157 kts | 150° |
| 2026-05-04 14:06 | -12.82648 | 45.29144 | 609 ft | 165 kts | 156° |
| 2026-05-04 14:06 | -12.83769 | 45.29529 | 1146 ft | 172 kts | 172° |
| 2026-05-04 14:06 | -12.84971 | 45.29342 | 1346 ft | 187 kts | 201° |
| 2026-05-04 14:06 | -12.86050 | 45.28643 | 2222 ft | 184 kts | 218° |
| 2026-05-04 14:07 | -12.86886 | 45.27661 | 2978 ft | 183 kts | 237° |
| 2026-05-04 14:07 | -12.87362 | 45.26457 | 3636 ft | 190 kts | 256° |
| 2026-05-04 14:07 | -12.87356 | 45.24980 | 3795 ft | 226 kts | 287° |
| 2026-05-04 14:07 | -12.86614 | 45.23455 | 4223 ft | 248 kts | 302° |
| 2026-05-04 14:08 | -12.85649 | 45.21952 | 4739 ft | 263 kts | 304° |
| 2026-05-04 14:08 | -12.84648 | 45.20361 | 5386 ft | 272 kts | 302° |
| 2026-05-04 14:08 | -12.83636 | 45.18657 | 5840 ft | 288 kts | 301° |
| 2026-05-04 14:08 | -12.82568 | 45.16871 | 6285 ft | 302 kts | 302° |
| 2026-05-04 14:09 | -12.80225 | 45.13084 | 7155 ft | 322 kts | 303° |
| 2026-05-04 14:09 | -12.79002 | 45.11148 | 7778 ft | 324 kts | 303° |
| 2026-05-04 14:10 | -12.76636 | 45.07238 | 9229 ft | 322 kts | 301° |
| 2026-05-04 14:10 | -12.75504 | 45.05278 | 10093 ft | 318 kts | 301° |
| 2026-05-04 14:10 | -12.74368 | 45.03334 | 10798 ft | 318 kts | 302° |
| 2026-05-04 14:10 | -12.73240 | 45.01380 | 11459 ft | 319 kts | 301° |
| 2026-05-04 14:11 | -12.72119 | 44.99414 | 12091 ft | 320 kts | 302° |
| 2026-05-04 14:11 | -12.69795 | 44.95506 | 13290 ft | 322 kts | 303° |
| 2026-05-04 14:11 | -12.68608 | 44.93560 | 13894 ft | 322 kts | 303° |
| 2026-05-04 14:12 | -12.67430 | 44.91612 | 14466 ft | 321 kts | 303° |
| 2026-05-04 14:12 | -12.66252 | 44.89673 | 15064 ft | 320 kts | 303° |
| 2026-05-04 14:12 | -12.63900 | 44.85815 | 16259 ft | 318 kts | 304° |
| 2026-05-04 14:13 | -12.62730 | 44.83889 | 16770 ft | 321 kts | 303° |
| 2026-05-04 14:13 | -12.61481 | 44.81907 | 16759 ft | 341 kts | 306° |
| 2026-05-04 14:13 | -12.60088 | 44.79875 | 16791 ft | 357 kts | 306° |
| 2026-05-04 14:13 | -12.58623 | 44.77761 | 16831 ft | 371 kts | 307° |
| 2026-05-04 14:14 | -12.57102 | 44.75579 | 16869 ft | 382 kts | 307° |
| 2026-05-04 14:14 | -12.53919 | 44.71045 | 16931 ft | 401 kts | 307° |
| 2026-05-04 14:14 | -12.52273 | 44.68711 | 16954 ft | 408 kts | 307° |
| 2026-05-04 14:15 | -12.48897 | 44.63935 | 16992 ft | 419 kts | 307° |
| 2026-05-04 14:15 | -12.45442 | 44.59057 | 17049 ft | 426 kts | 307° |
| 2026-05-04 14:16 | -12.42027 | 44.54136 | 17453 ft | 422 kts | 306° |
| 2026-05-04 14:16 | -12.40347 | 44.51688 | 17666 ft | 419 kts | 306° |
| 2026-05-04 14:17 | -12.37013 | 44.46840 | 18133 ft | 415 kts | 306° |
| 2026-05-04 14:17 | -12.35343 | 44.44428 | 18314 ft | 415 kts | 306° |
| 2026-05-04 14:17 | -12.31983 | 44.39621 | 18586 ft | 415 kts | 306° |
| 2026-05-04 14:18 | -12.30302 | 44.37222 | 18731 ft | 415 kts | 306° |
| 2026-05-04 14:18 | -12.26940 | 44.32430 | 18999 ft | 415 kts | 306° |
| 2026-05-04 14:19 | -12.23589 | 44.27675 | 19243 ft | 414 kts | 307° |
| 2026-05-04 14:19 | -12.21904 | 44.25285 | 19379 ft | 414 kts | 307° |
| 2026-05-04 14:19 | -12.20219 | 44.22897 | 19511 ft | 414 kts | 307° |
| 2026-05-04 14:19 | -12.18537 | 44.20515 | 19643 ft | 413 kts | 307° |
| 2026-05-04 14:20 | -12.16854 | 44.18136 | 19761 ft | 413 kts | 307° |
| 2026-05-04 14:20 | -12.15169 | 44.15760 | 19888 ft | 413 kts | 307° |
| 2026-05-04 14:20 | -12.13484 | 44.13383 | 20022 ft | 413 kts | 307° |
| 2026-05-04 14:21 | -12.10116 | 44.08638 | 20274 ft | 412 kts | 307° |
| 2026-05-04 14:21 | -12.08432 | 44.06272 | 20403 ft | 412 kts | 307° |
| 2026-05-04 14:21 | -12.06749 | 44.03907 | 20526 ft | 411 kts | 307° |
| 2026-05-04 14:21 | -12.05064 | 44.01544 | 20668 ft | 411 kts | 307° |
| 2026-05-04 14:22 | -12.03382 | 43.99184 | 20776 ft | 411 kts | 307° |
| 2026-05-04 14:22 | -12.01696 | 43.96825 | 20912 ft | 411 kts | 307° |
| 2026-05-04 14:22 | -12.00013 | 43.94467 | 21047 ft | 410 kts | 307° |
| 2026-05-04 14:22 | -11.98328 | 43.92115 | 21168 ft | 410 kts | 307° |
| 2026-05-04 14:23 | -11.94963 | 43.87416 | 21447 ft | 409 kts | 307° |
| 2026-05-04 14:23 | -11.93281 | 43.85072 | 21562 ft | 410 kts | 307° |
| 2026-05-04 14:23 | -11.91593 | 43.82725 | 21689 ft | 410 kts | 307° |
| 2026-05-04 14:24 | -11.89910 | 43.80384 | 21830 ft | 409 kts | 307° |
| 2026-05-04 14:24 | -11.88227 | 43.78045 | 21970 ft | 409 kts | 307° |
| 2026-05-04 14:24 | -11.86543 | 43.75706 | 22106 ft | 408 kts | 307° |
| 2026-05-04 14:24 | -11.84860 | 43.73372 | 22220 ft | 408 kts | 307° |
| 2026-05-04 14:25 | -11.83174 | 43.71040 | 22354 ft | 408 kts | 307° |
| 2026-05-04 14:25 | -11.80375 | 43.67167 | 22588 ft | 408 kts | 307° |
| 2026-05-04 14:25 | -11.78691 | 43.64840 | 22735 ft | 407 kts | 307° |
| 2026-05-04 14:26 | -11.77008 | 43.62516 | 22862 ft | 407 kts | 308° |
| 2026-05-04 14:26 | -11.75325 | 43.60197 | 23002 ft | 407 kts | 308° |
| 2026-05-04 14:26 | -11.73638 | 43.57875 | 23142 ft | 406 kts | 308° |
| 2026-05-04 14:26 | -11.71956 | 43.55559 | 23255 ft | 407 kts | 308° |
| 2026-05-04 14:27 | -11.70265 | 43.53237 | 23389 ft | 407 kts | 308° |
| 2026-05-04 14:27 | -11.68577 | 43.50919 | 23526 ft | 407 kts | 308° |
| 2026-05-04 14:27 | -11.66894 | 43.48609 | 23655 ft | 406 kts | 308° |
| 2026-05-04 14:27 | -11.65210 | 43.46301 | 23775 ft | 406 kts | 308° |
| 2026-05-04 14:28 | -11.63523 | 43.43990 | 23898 ft | 405 kts | 308° |
| 2026-05-04 14:28 | -11.61841 | 43.41689 | 24025 ft | 404 kts | 308° |
| 2026-05-04 14:28 | -11.60158 | 43.39389 | 24142 ft | 404 kts | 308° |
| 2026-05-04 14:28 | -11.58476 | 43.37094 | 24264 ft | 404 kts | 308° |
| 2026-05-04 14:29 | -11.55113 | 43.32512 | 24473 ft | 403 kts | 308° |
| 2026-05-04 14:29 | -11.51747 | 43.27944 | 24685 ft | 402 kts | 309° |
| 2026-05-04 14:30 | -11.49923 | 43.25778 | 24745 ft | 402 kts | 314° |
| 2026-05-04 14:30 | -11.48012 | 43.23704 | 24837 ft | 402 kts | 315° |
| 2026-05-04 14:30 | -11.44178 | 43.19564 | 25033 ft | 401 kts | 314° |
| 2026-05-04 14:31 | -11.42274 | 43.17494 | 25132 ft | 400 kts | 314° |
| 2026-05-04 14:31 | -11.38472 | 43.13349 | 25304 ft | 400 kts | 314° |
| 2026-05-04 14:32 | -11.34678 | 43.09208 | 25468 ft | 400 kts | 314° |
| 2026-05-04 14:32 | -11.32782 | 43.07139 | 25545 ft | 400 kts | 314° |
| 2026-05-04 14:32 | -11.30886 | 43.05070 | 25632 ft | 399 kts | 314° |
| 2026-05-04 14:32 | -11.28991 | 43.03003 | 25713 ft | 399 kts | 314° |
| 2026-05-04 14:33 | -11.27097 | 43.00937 | 25793 ft | 399 kts | 314° |
| 2026-05-04 14:33 | -11.25203 | 42.98871 | 25864 ft | 399 kts | 314° |
| 2026-05-04 14:33 | -11.23309 | 42.96806 | 25951 ft | 399 kts | 314° |
| 2026-05-04 14:33 | -11.21416 | 42.94744 | 26026 ft | 398 kts | 314° |
| 2026-05-04 14:34 | -11.19547 | 42.92708 | 26104 ft | 398 kts | 314° |
| 2026-05-04 14:34 | -11.17659 | 42.90650 | 26192 ft | 398 kts | 314° |
| 2026-05-04 14:34 | -11.15768 | 42.88591 | 26248 ft | 399 kts | 314° |
| 2026-05-04 14:34 | -11.13869 | 42.86522 | 26248 ft | 401 kts | 314° |
| 2026-05-04 14:35 | -11.11963 | 42.84447 | 26254 ft | 402 kts | 314° |
| 2026-05-04 14:35 | -11.10047 | 42.82362 | 26257 ft | 404 kts | 314° |
| 2026-05-04 14:35 | -11.08125 | 42.80270 | 26261 ft | 405 kts | 314° |
| 2026-05-04 14:35 | -11.06197 | 42.78173 | 26268 ft | 406 kts | 314° |
| 2026-05-04 14:36 | -11.04263 | 42.76069 | 26272 ft | 407 kts | 314° |
| 2026-05-04 14:36 | -11.02324 | 42.73960 | 26276 ft | 408 kts | 314° |
| 2026-05-04 14:36 | -11.00380 | 42.71846 | 26279 ft | 409 kts | 314° |
| 2026-05-04 14:36 | -10.98432 | 42.69729 | 26269 ft | 411 kts | 314° |
| 2026-05-04 14:37 | -10.96451 | 42.67575 | 26219 ft | 423 kts | 314° |
| 2026-05-04 14:37 | -10.94401 | 42.65348 | 26162 ft | 438 kts | 314° |
| 2026-05-04 14:37 | -10.92317 | 42.63083 | 26517 ft | 440 kts | 314° |
| 2026-05-04 14:37 | -10.90217 | 42.60802 | 26822 ft | 443 kts | 314° |
| 2026-05-04 14:38 | -10.88097 | 42.58498 | 27067 ft | 449 kts | 314° |
| 2026-05-04 14:38 | -10.85952 | 42.56169 | 27275 ft | 454 kts | 314° |
| 2026-05-04 14:38 | -10.83783 | 42.53813 | 27536 ft | 458 kts | 314° |
| 2026-05-04 14:38 | -10.81595 | 42.51438 | 27798 ft | 462 kts | 314° |
| 2026-05-04 14:39 | -10.79389 | 42.49045 | 28040 ft | 466 kts | 314° |
| 2026-05-04 14:39 | -10.77165 | 42.46633 | 28276 ft | 469 kts | 314° |
| 2026-05-04 14:39 | -10.74911 | 42.44227 | 28533 ft | 471 kts | 317° |
| 2026-05-04 14:40 | -10.69517 | 42.40461 | 29087 ft | 472 kts | 329° |
| 2026-05-04 14:40 | -10.66717 | 42.38717 | 29425 ft | 472 kts | 329° |
| 2026-05-04 14:40 | -10.63925 | 42.36964 | 29785 ft | 471 kts | 329° |
| 2026-05-04 14:40 | -10.61146 | 42.35214 | 30122 ft | 470 kts | 329° |
| 2026-05-04 14:41 | -10.58373 | 42.33466 | 30446 ft | 468 kts | 329° |
| 2026-05-04 14:41 | -10.55610 | 42.31722 | 30733 ft | 467 kts | 329° |
| 2026-05-04 14:41 | -10.50096 | 42.28242 | 31305 ft | 465 kts | 329° |
| 2026-05-04 14:42 | -10.44605 | 42.24777 | 31889 ft | 464 kts | 329° |
| 2026-05-04 14:42 | -10.41901 | 42.23072 | 32175 ft | 463 kts | 329° |
| 2026-05-04 14:42 | -10.39131 | 42.21325 | 32472 ft | 462 kts | 329° |
| 2026-05-04 14:43 | -10.36404 | 42.19606 | 32779 ft | 461 kts | 329° |
| 2026-05-04 14:43 | -10.33681 | 42.17890 | 33073 ft | 460 kts | 329° |
| 2026-05-04 14:43 | -10.30994 | 42.16196 | 33329 ft | 460 kts | 329° |
| 2026-05-04 14:43 | -10.28238 | 42.14460 | 33612 ft | 460 kts | 329° |
| 2026-05-04 14:44 | -10.25558 | 42.12772 | 33893 ft | 459 kts | 329° |
| 2026-05-04 14:44 | -10.22850 | 42.11067 | 34132 ft | 458 kts | 329° |
| 2026-05-04 14:44 | -10.20143 | 42.09364 | 34339 ft | 458 kts | 329° |
| 2026-05-04 14:44 | -10.17440 | 42.07662 | 34540 ft | 457 kts | 329° |
| 2026-05-04 14:45 | -10.14733 | 42.05960 | 34733 ft | 457 kts | 329° |
| 2026-05-04 14:45 | -10.12030 | 42.04261 | 34940 ft | 457 kts | 329° |
| 2026-05-04 14:45 | -10.09333 | 42.02565 | 35123 ft | 457 kts | 329° |
| 2026-05-04 14:45 | -10.06627 | 42.00864 | 35261 ft | 458 kts | 329° |
| 2026-05-04 14:46 | -10.03919 | 41.99164 | 35432 ft | 458 kts | 329° |
| 2026-05-04 14:46 | -10.01216 | 41.97466 | 35643 ft | 457 kts | 329° |
| 2026-05-04 14:46 | -9.98516 | 41.95769 | 35847 ft | 456 kts | 329° |
| 2026-05-04 14:46 | -9.95839 | 41.94088 | 35882 ft | 449 kts | 329° |
| 2026-05-04 14:47 | -9.90498 | 41.90741 | 35903 ft | 454 kts | 329° |
| 2026-05-04 14:47 | -9.85109 | 41.87361 | 35921 ft | 456 kts | 329° |
| 2026-05-04 14:48 | -9.79703 | 41.83975 | 35927 ft | 458 kts | 329° |
| 2026-05-04 14:48 | -9.74291 | 41.80587 | 35926 ft | 455 kts | 329° |
| 2026-05-04 14:49 | -9.68863 | 41.77187 | 35943 ft | 462 kts | 329° |
| 2026-05-04 14:49 | -9.63352 | 41.73738 | 35965 ft | 468 kts | 329° |
| 2026-05-04 14:50 | -9.57784 | 41.70253 | 35964 ft | 472 kts | 329° |
| 2026-05-04 14:50 | -9.52214 | 41.66770 | 35971 ft | 474 kts | 329° |
| 2026-05-04 14:51 | -9.46607 | 41.63264 | 35963 ft | 474 kts | 329° |
| 2026-05-04 14:51 | -9.40990 | 41.59755 | 35966 ft | 474 kts | 329° |
| 2026-05-04 14:52 | -9.35381 | 41.56252 | 35971 ft | 473 kts | 329° |
| 2026-05-04 14:52 | -9.29766 | 41.52745 | 35965 ft | 475 kts | 329° |
| 2026-05-04 14:53 | -9.24149 | 41.49239 | 35970 ft | 474 kts | 329° |
| 2026-05-04 14:53 | -9.18537 | 41.45739 | 35962 ft | 475 kts | 330° |
| 2026-05-04 14:54 | -9.12914 | 41.42233 | 35968 ft | 474 kts | 330° |
| 2026-05-04 14:54 | -9.07300 | 41.38732 | 35968 ft | 474 kts | 330° |
| 2026-05-04 14:55 | -9.01681 | 41.35231 | 35971 ft | 474 kts | 330° |
| 2026-05-04 14:55 | -8.96068 | 41.31734 | 35970 ft | 474 kts | 329° |
| 2026-05-04 14:56 | -8.90446 | 41.28233 | 35968 ft | 474 kts | 330° |
| 2026-05-04 14:56 | -8.84828 | 41.24734 | 35959 ft | 474 kts | 330° |
| 2026-05-04 14:57 | -8.79207 | 41.21237 | 35962 ft | 475 kts | 330° |
| 2026-05-04 14:57 | -8.73585 | 41.17741 | 35961 ft | 474 kts | 329° |
| 2026-05-04 14:58 | -8.67965 | 41.14246 | 35963 ft | 475 kts | 330° |
| 2026-05-04 14:58 | -8.62341 | 41.10750 | 35968 ft | 474 kts | 329° |
| 2026-05-04 14:59 | -8.56728 | 41.07262 | 35965 ft | 474 kts | 329° |
| 2026-05-04 15:00 | -8.48296 | 41.02024 | 35967 ft | 474 kts | 329° |
| 2026-05-04 15:00 | -8.42679 | 40.98536 | 35971 ft | 474 kts | 330° |
| 2026-05-04 15:01 | -8.34247 | 40.93303 | 35964 ft | 474 kts | 330° |
| 2026-05-04 15:01 | -8.28663 | 40.89839 | 35963 ft | 474 kts | 330° |
| 2026-05-04 15:02 | -8.23004 | 40.86330 | 35964 ft | 474 kts | 330° |
| 2026-05-04 15:02 | -8.17383 | 40.82834 | 35968 ft | 474 kts | 329° |
| 2026-05-04 15:03 | -8.11836 | 40.79223 | 35964 ft | 475 kts | 328° |
| 2026-05-04 15:03 | -8.06323 | 40.75637 | 35966 ft | 475 kts | 329° |
| 2026-05-04 15:04 | -8.00723 | 40.72006 | 35970 ft | 476 kts | 329° |
| 2026-05-04 15:04 | -7.95154 | 40.68397 | 35967 ft | 475 kts | 329° |
| 2026-05-04 15:05 | -7.89589 | 40.64793 | 35967 ft | 476 kts | 329° |
| 2026-05-04 15:05 | -7.84019 | 40.61187 | 35968 ft | 476 kts | 329° |
| 2026-05-04 15:06 | -7.78458 | 40.57658 | 35969 ft | 475 kts | 330° |
| 2026-05-04 15:07 | -7.70012 | 40.52389 | 35968 ft | 476 kts | 330° |
| 2026-05-04 15:07 | -7.64384 | 40.48872 | 35970 ft | 476 kts | 330° |
| 2026-05-04 15:08 | -7.58757 | 40.45354 | 35967 ft | 476 kts | 330° |
| 2026-05-04 15:08 | -7.53128 | 40.41836 | 35968 ft | 476 kts | 330° |
| 2026-05-04 15:09 | -7.47495 | 40.38314 | 35968 ft | 477 kts | 330° |
| 2026-05-04 15:09 | -7.41863 | 40.34796 | 35968 ft | 477 kts | 330° |
| 2026-05-04 15:10 | -7.33409 | 40.29516 | 35973 ft | 477 kts | 330° |
| 2026-05-04 15:11 | -7.24955 | 40.24239 | 35976 ft | 476 kts | 330° |
| 2026-05-04 15:11 | -7.19320 | 40.20723 | 35976 ft | 477 kts | 330° |
| 2026-05-04 15:12 | -7.13684 | 40.17207 | 35971 ft | 477 kts | 330° |
| 2026-05-04 15:12 | -7.08999 | 40.14284 | 35973 ft | 476 kts | 330° |
| 2026-05-04 15:13 | -7.03363 | 40.10770 | 35973 ft | 476 kts | 330° |
| 2026-05-04 15:13 | -6.97724 | 40.07256 | 35975 ft | 477 kts | 330° |
| 2026-05-04 15:14 | -6.92085 | 40.03742 | 35974 ft | 477 kts | 330° |
| 2026-05-04 15:14 | -6.86434 | 40.00222 | 35971 ft | 477 kts | 330° |
| 2026-05-04 15:15 | -6.80789 | 39.96706 | 35975 ft | 477 kts | 330° |
| 2026-05-04 15:15 | -6.75145 | 39.93191 | 35971 ft | 477 kts | 330° |
| 2026-05-04 15:16 | -6.66672 | 39.87914 | 35970 ft | 478 kts | 330° |
| 2026-05-04 15:17 | -6.58189 | 39.82635 | 35966 ft | 478 kts | 330° |
| 2026-05-04 15:17 | -6.49702 | 39.77364 | 35968 ft | 478 kts | 330° |
| 2026-05-04 15:18 | -6.44047 | 39.73847 | 35963 ft | 478 kts | 330° |
| 2026-05-04 15:19 | -6.35596 | 39.68490 | 35966 ft | 479 kts | 330° |
| 2026-05-04 15:19 | -6.27144 | 39.63130 | 35958 ft | 479 kts | 330° |
| 2026-05-04 15:20 | -6.21465 | 39.59633 | 35959 ft | 478 kts | 332° |
| 2026-05-04 15:20 | -6.15738 | 39.56226 | 35958 ft | 478 kts | 332° |
| 2026-05-04 15:21 | -6.10015 | 39.52803 | 35976 ft | 479 kts | 331° |
| 2026-05-04 15:22 | -6.01436 | 39.47663 | 35977 ft | 478 kts | 331° |
| 2026-05-04 15:22 | -5.92864 | 39.42521 | 35974 ft | 478 kts | 331° |
| 2026-05-04 15:23 | -5.87149 | 39.39090 | 35976 ft | 479 kts | 332° |
| 2026-05-04 15:23 | -5.81408 | 39.35694 | 35976 ft | 479 kts | 332° |
| 2026-05-04 15:24 | -5.69941 | 39.28924 | 35974 ft | 478 kts | 332° |
| 2026-05-04 15:25 | -5.64208 | 39.25539 | 35971 ft | 478 kts | 332° |
| 2026-05-04 15:26 | -5.55611 | 39.20464 | 35971 ft | 478 kts | 332° |
| 2026-05-04 15:26 | -5.47013 | 39.15388 | 35969 ft | 478 kts | 332° |
| 2026-05-04 15:27 | -5.38456 | 39.10340 | 35971 ft | 478 kts | 332° |
| 2026-05-04 15:28 | -5.29857 | 39.05268 | 35972 ft | 478 kts | 332° |
| 2026-05-04 15:29 | -5.21249 | 39.00193 | 35976 ft | 478 kts | 332° |
| 2026-05-04 15:30 | -5.01158 | 38.88353 | 35994 ft | 480 kts | 332° |
| 2026-05-04 15:31 | -4.92533 | 38.83271 | 36006 ft | 479 kts | 332° |
| 2026-05-04 15:32 | -4.78233 | 38.74662 | 36021 ft | 480 kts | 331° |
| 2026-05-04 15:34 | -4.63969 | 38.65918 | 36011 ft | 481 kts | 331° |
| 2026-05-04 15:34 | -4.55407 | 38.60677 | 36019 ft | 481 kts | 331° |
| 2026-05-04 15:35 | -4.46846 | 38.55440 | 36009 ft | 481 kts | 331° |
| 2026-05-04 15:36 | -4.38272 | 38.50194 | 36002 ft | 481 kts | 331° |
| 2026-05-04 15:36 | -4.32595 | 38.46722 | 36012 ft | 481 kts | 331° |
| 2026-05-04 15:37 | -4.26842 | 38.43204 | 36008 ft | 481 kts | 331° |
| 2026-05-04 15:37 | -4.21123 | 38.39709 | 36009 ft | 481 kts | 331° |
| 2026-05-04 15:38 | -4.15441 | 38.36237 | 36018 ft | 482 kts | 330° |
| 2026-05-04 15:38 | -4.09720 | 38.32741 | 36018 ft | 482 kts | 330° |
| 2026-05-04 15:39 | -4.03994 | 38.29241 | 36016 ft | 482 kts | 330° |
| 2026-05-04 15:40 | -3.95427 | 38.23955 | 36020 ft | 482 kts | 330° |
| 2026-05-04 15:40 | -3.89719 | 38.20431 | 36027 ft | 482 kts | 330° |
| 2026-05-04 15:41 | -3.84007 | 38.16907 | 36029 ft | 482 kts | 330° |
| 2026-05-04 15:41 | -3.78298 | 38.13382 | 36034 ft | 482 kts | 330° |
| 2026-05-04 15:42 | -3.72590 | 38.09858 | 36035 ft | 482 kts | 330° |
| 2026-05-04 15:42 | -3.66884 | 38.06338 | 36039 ft | 482 kts | 330° |
| 2026-05-04 15:43 | -3.61174 | 38.02817 | 36043 ft | 483 kts | 330° |
| 2026-05-04 15:43 | -3.55400 | 37.99301 | 36048 ft | 487 kts | 330° |
| 2026-05-04 15:44 | -3.49607 | 37.95787 | 36044 ft | 487 kts | 330° |
| 2026-05-04 15:44 | -3.43809 | 37.92270 | 36041 ft | 487 kts | 330° |
| 2026-05-04 15:45 | -3.38013 | 37.88753 | 36047 ft | 487 kts | 330° |
| 2026-05-04 15:45 | -3.32219 | 37.85236 | 36049 ft | 487 kts | 330° |
| 2026-05-04 15:46 | -3.26422 | 37.81719 | 36048 ft | 487 kts | 330° |
| 2026-05-04 15:46 | -3.20628 | 37.78203 | 36069 ft | 487 kts | 330° |
| 2026-05-04 15:47 | -3.14836 | 37.74690 | 36072 ft | 487 kts | 330° |
| 2026-05-04 15:47 | -3.09040 | 37.71173 | 36091 ft | 487 kts | 330° |
| 2026-05-04 15:48 | -3.03250 | 37.67662 | 36091 ft | 487 kts | 330° |
| 2026-05-04 15:48 | -2.94568 | 37.62399 | 36090 ft | 487 kts | 330° |
| 2026-05-04 15:49 | -2.88778 | 37.58888 | 36111 ft | 487 kts | 330° |
| 2026-05-04 15:49 | -2.82971 | 37.55407 | 36110 ft | 486 kts | 333° |
| 2026-05-04 15:50 | -2.77045 | 37.52158 | 36111 ft | 486 kts | 333° |
| 2026-05-04 15:50 | -2.71126 | 37.48894 | 36095 ft | 486 kts | 333° |
| 2026-05-04 15:51 | -2.65218 | 37.45621 | 36072 ft | 484 kts | 333° |
| 2026-05-04 15:51 | -2.59324 | 37.42351 | 36083 ft | 485 kts | 333° |
| 2026-05-04 15:52 | -2.53431 | 37.39081 | 36062 ft | 484 kts | 333° |
| 2026-05-04 15:52 | -2.50531 | 37.37472 | 35987 ft | 468 kts | 333° |
| 2026-05-04 15:52 | -2.47757 | 37.35932 | 35560 ft | 459 kts | 333° |
| 2026-05-04 15:53 | -2.44985 | 37.34393 | 35061 ft | 452 kts | 332° |
| 2026-05-04 15:53 | -2.42247 | 37.32875 | 34480 ft | 448 kts | 332° |
| 2026-05-04 15:53 | -2.39523 | 37.31366 | 33743 ft | 448 kts | 332° |
| 2026-05-04 15:53 | -2.36801 | 37.29855 | 32929 ft | 448 kts | 332° |
| 2026-05-04 15:54 | -2.34069 | 37.28341 | 32049 ft | 450 kts | 332° |
| 2026-05-04 15:54 | -2.31319 | 37.26815 | 31131 ft | 453 kts | 332° |
| 2026-05-04 15:54 | -2.28552 | 37.25281 | 30199 ft | 456 kts | 332° |
| 2026-05-04 15:54 | -2.25763 | 37.23734 | 29021 ft | 461 kts | 332° |
| 2026-05-04 15:55 | -2.22954 | 37.22175 | 27970 ft | 463 kts | 332° |
| 2026-05-04 15:55 | -2.20133 | 37.20612 | 26920 ft | 464 kts | 332° |
| 2026-05-04 15:55 | -2.17316 | 37.19049 | 25853 ft | 465 kts | 332° |
| 2026-05-04 15:55 | -2.14475 | 37.17474 | 24794 ft | 467 kts | 332° |
| 2026-05-04 15:56 | -2.11640 | 37.15901 | 23869 ft | 465 kts | 332° |
| 2026-05-04 15:56 | -2.08817 | 37.14334 | 22886 ft | 461 kts | 332° |
| 2026-05-04 15:56 | -2.06032 | 37.12790 | 22049 ft | 454 kts | 332° |
| 2026-05-04 15:56 | -2.03291 | 37.11271 | 21188 ft | 447 kts | 332° |
| 2026-05-04 15:57 | -2.00578 | 37.09766 | 20317 ft | 443 kts | 332° |
| 2026-05-04 15:57 | -1.97923 | 37.08293 | 19744 ft | 431 kts | 332° |
| 2026-05-04 15:57 | -1.96196 | 37.07335 | 19343 ft | 427 kts | 332° |
| 2026-05-04 15:57 | -1.93613 | 37.05904 | 18767 ft | 423 kts | 332° |
| 2026-05-04 15:58 | -1.91048 | 37.04484 | 18161 ft | 420 kts | 332° |
| 2026-05-04 15:58 | -1.88508 | 37.03076 | 17659 ft | 414 kts | 333° |
| 2026-05-04 15:58 | -1.85237 | 37.01261 | 16923 ft | 399 kts | 333° |
| 2026-05-04 15:58 | -1.83612 | 37.00359 | 16573 ft | 392 kts | 332° |
| 2026-05-04 15:59 | -1.81256 | 36.99053 | 16053 ft | 382 kts | 333° |
| 2026-05-04 15:59 | -1.78960 | 36.97780 | 15577 ft | 373 kts | 332° |
| 2026-05-04 15:59 | -1.76717 | 36.96537 | 15074 ft | 365 kts | 333° |
| 2026-05-04 15:59 | -1.74513 | 36.95319 | 14597 ft | 359 kts | 333° |
| 2026-05-04 16:00 | -1.72351 | 36.94120 | 14136 ft | 353 kts | 333° |
| 2026-05-04 16:00 | -1.70224 | 36.92942 | 13648 ft | 347 kts | 333° |
| 2026-05-04 16:00 | -1.68139 | 36.91784 | 13232 ft | 339 kts | 332° |
| 2026-05-04 16:00 | -1.66096 | 36.90652 | 12766 ft | 333 kts | 332° |
| 2026-05-04 16:01 | -1.64083 | 36.89535 | 12343 ft | 328 kts | 332° |
| 2026-05-04 16:01 | -1.62100 | 36.88439 | 11896 ft | 324 kts | 333° |
| 2026-05-04 16:01 | -1.60135 | 36.87351 | 11473 ft | 320 kts | 333° |
| 2026-05-04 16:01 | -1.58196 | 36.86277 | 11046 ft | 317 kts | 333° |
| 2026-05-04 16:02 | -1.56276 | 36.85213 | 10631 ft | 314 kts | 332° |
| 2026-05-04 16:02 | -1.54400 | 36.84173 | 10215 ft | 311 kts | 333° |
| 2026-05-04 16:02 | -1.50684 | 36.82075 | 9646 ft | 292 kts | 328° |
| 2026-05-04 16:03 | -1.49110 | 36.80921 | 9628 ft | 278 kts | 324° |
| 2026-05-04 16:03 | -1.47582 | 36.79769 | 9609 ft | 266 kts | 325° |
| 2026-05-04 16:03 | -1.46117 | 36.78716 | 9579 ft | 261 kts | 332° |
| 2026-05-04 16:03 | -1.44464 | 36.78163 | 9402 ft | 242 kts | 0° |
| 2026-05-04 16:04 | -1.42888 | 36.78469 | 8996 ft | 224 kts | 26° |
| 2026-05-04 16:04 | -1.40959 | 36.80380 | 8843 ft | 178 kts | 59° |
| 2026-05-04 16:04 | -1.40244 | 36.81344 | 8727 ft | 166 kts | 53° |
| 2026-05-04 16:05 | -1.39551 | 36.82242 | 8454 ft | 159 kts | 59° |
| 2026-05-04 16:05 | -1.38928 | 36.83139 | 8098 ft | 163 kts | 60° |
| 2026-05-04 16:05 | -1.37427 | 36.85193 | 7018 ft | 184 kts | 57° |
| 2026-05-04 16:06 | -1.36671 | 36.86186 | 6760 ft | 178 kts | 59° |
| 2026-05-04 16:06 | -1.34920 | 36.88620 | 6127 ft | 140 kts | 60° |
| 2026-05-04 16:07 | -1.34181 | 36.89659 | 5804 ft | 140 kts | 57° |
| 2026-05-04 16:07 | -1.32374 | 36.92161 | 5325 ft | 134 kts | 56° |